Portada
METAR-TAF:

METAR-TAF

Aeroports :

Apalachicola, Florida, Estats Units d'Amèrica

latitud: 29-43-37N, longitud: 085-01-29W, altitud: 6 m

Observació

L'informe es va fer fa 42 minuts, a les 05:53 UTC
Vent 5 kt del Sud
Temperatura 29°C
Humitat 74%
Pressió 1018 hPa
Visibilitat: 16.1 km
Cel clar

METAR: KAAF 200553Z AUTO 19005KT 10SM CLR 29/24 A3006 RMK AO2 SLP177 T02890244 10300 20272 50003

Hora: 02:35 (06:35 UTC)


TAF: manca

Observacions i pronòstics meteorològics de més de 4000 aeroports (METAR i TAF).

Les estacions disponibles són els punts grocs i vermells al mapa.

Posi el ratolí al punt desitjat per veure el nom de l'estació.

Feu clic per veure les observacions i els pronòstics meteorològics.

Per canviar el mapa: feu clic els botons verds amb una creu de color negre per apropar; al botó verd amb un guió per allunyar la imatge; o en les fletxes verdes per a mapes adjacents.


METAR-TAF: